createdAt,value
2018-02-24T00:00:18.060Z,6.10
2018-02-24T00:02:48.136Z,6.02
2018-02-24T00:05:18.788Z,5.97
2018-02-24T00:07:49.326Z,6.06
2018-02-24T00:10:20.162Z,6.04
2018-02-24T00:12:50.138Z,6.01
2018-02-24T00:15:21.510Z,6.07
2018-02-24T00:17:51.831Z,6.00
2018-02-24T00:20:22.359Z,5.88
2018-02-24T00:22:52.862Z,5.82
2018-02-24T00:25:23.288Z,5.83
2018-02-24T00:27:54.056Z,5.88
2018-02-24T00:30:23.959Z,5.90
2018-02-24T00:32:54.266Z,5.83
2018-02-24T00:35:24.547Z,5.82
2018-02-24T00:37:54.994Z,5.84
2018-02-24T00:40:25.353Z,5.90
2018-02-24T00:42:55.834Z,6.00
2018-02-24T00:45:25.628Z,5.95
2018-02-24T00:47:55.379Z,5.95
2018-02-24T00:50:26.493Z,6.03
2018-02-24T00:52:56.920Z,5.92
2018-02-24T00:55:27.863Z,5.80
2018-02-24T00:57:58.228Z,5.86
2018-02-24T01:00:28.638Z,5.89
2018-02-24T01:02:59.445Z,5.83
2018-02-24T01:05:29.727Z,5.87
2018-02-24T01:08:00.301Z,5.86
2018-02-24T01:10:30.723Z,5.91
2018-02-24T01:13:01.095Z,5.91
2018-02-24T01:15:31.531Z,5.89
2018-02-24T01:18:01.887Z,5.92
2018-02-24T01:20:32.099Z,5.95
2018-02-24T01:23:03.209Z,5.87
2018-02-24T01:25:33.585Z,5.90
2018-02-24T01:28:04.317Z,5.92
2018-02-24T01:30:34.628Z,5.98
2018-02-24T01:33:05.112Z,6.01
2018-02-24T01:35:35.555Z,6.02
2018-02-24T01:38:06.136Z,6.00
2018-02-24T01:40:38.073Z,5.99
2018-02-24T01:43:08.619Z,6.07
2018-02-24T01:45:38.865Z,6.17
2018-02-24T01:48:08.623Z,6.18
2018-02-24T01:50:42.820Z,6.08
2018-02-24T01:53:12.974Z,6.14
2018-02-24T01:55:43.142Z,6.12
2018-02-24T01:58:13.364Z,6.20
2018-02-24T02:00:43.612Z,6.20
2018-02-24T02:03:14.508Z,6.14
2018-02-24T02:05:44.712Z,6.16
2018-02-24T02:08:15.591Z,6.22
2018-02-24T02:10:45.713Z,6.20
2018-02-24T02:13:16.358Z,6.24
2018-02-24T02:15:47.041Z,6.23
2018-02-24T02:18:16.993Z,6.22
2018-02-24T02:20:47.041Z,6.28
2018-02-24T02:23:17.413Z,6.37
2018-02-24T02:25:47.806Z,6.41
2018-02-24T02:28:18.095Z,6.37
2018-02-24T02:30:48.348Z,6.36
2018-02-24T02:33:18.758Z,6.30
2018-02-24T02:35:49.202Z,6.27
2018-02-24T02:38:19.789Z,6.25
2018-02-24T02:40:50.217Z,6.26
2018-02-24T02:43:20.725Z,6.23
2018-02-24T02:45:50.549Z,6.17
2018-02-24T02:48:20.973Z,6.21
2018-02-24T02:50:52.217Z,6.20
2018-02-24T02:53:22.543Z,6.22
2018-02-24T02:55:53.038Z,6.23
2018-02-24T02:58:23.395Z,6.23
2018-02-24T03:00:53.805Z,6.30
2018-02-24T03:03:24.217Z,6.24
2018-02-24T03:05:54.586Z,6.15
2018-02-24T03:08:24.601Z,6.12
2018-02-24T03:10:55.047Z,6.17
2018-02-24T03:13:25.397Z,6.10
2018-02-24T03:15:55.800Z,6.15
2018-02-24T03:18:25.586Z,6.18
2018-02-24T03:20:56.027Z,6.22
2018-02-24T03:23:26.759Z,6.21
2018-02-24T03:25:57.098Z,6.31
2018-02-24T03:28:27.542Z,6.23
2018-02-24T03:30:58.338Z,6.22
2018-02-24T03:33:29.062Z,6.17
2018-02-24T03:35:58.916Z,6.12
2018-02-24T03:38:29.283Z,6.17
2018-02-24T03:40:59.578Z,6.18
2018-02-24T03:43:30.425Z,6.12
2018-02-24T03:46:12.532Z,6.17
2018-02-24T03:48:42.401Z,6.12
2018-02-24T03:51:12.921Z,5.97
2018-02-24T03:53:42.822Z,5.96
2018-02-24T03:56:13.135Z,5.99
2018-02-24T03:58:43.299Z,5.95
2018-02-24T04:01:13.654Z,6.02
2018-02-24T04:03:43.989Z,6.00
2018-02-24T04:06:14.297Z,5.99
2018-02-24T04:08:44.615Z,6.01
2018-02-24T04:11:14.561Z,5.96
2018-02-24T04:13:45.330Z,5.95
2018-02-24T04:16:16.082Z,5.87
2018-02-24T04:18:47.723Z,5.73
2018-02-24T04:21:17.964Z,5.81
2018-02-24T04:23:48.848Z,5.93
2018-02-24T04:26:19.000Z,5.86
2018-02-24T04:28:50.347Z,5.94
2018-02-24T04:31:20.718Z,5.90
2018-02-24T04:33:50.917Z,5.96
2018-02-24T04:36:21.571Z,5.88
2018-02-24T04:38:52.260Z,5.89
2018-02-24T04:41:22.780Z,5.80
2018-02-24T04:43:53.121Z,5.90
2018-02-24T04:46:23.307Z,5.89
2018-02-24T04:48:53.812Z,5.87
2018-02-24T04:51:23.682Z,5.81
2018-02-24T04:53:54.038Z,5.86
2018-02-24T04:56:24.540Z,5.91
2018-02-24T04:58:55.320Z,5.79
2018-02-24T05:01:25.863Z,5.81
2018-02-24T05:03:56.364Z,5.81
2018-02-24T05:06:26.835Z,5.78
2018-02-24T05:08:57.336Z,5.80
2018-02-24T05:11:27.745Z,5.77
2018-02-24T05:13:58.295Z,5.75
2018-02-24T05:16:28.705Z,5.75
2018-02-24T05:18:59.298Z,5.73
2018-02-24T05:21:29.761Z,5.71
2018-02-24T05:24:00.190Z,5.82
2018-02-24T05:26:30.452Z,5.80
2018-02-24T05:29:00.948Z,5.73
2018-02-24T05:31:31.442Z,5.78
2018-02-24T05:34:02.276Z,5.73
2018-02-24T05:36:32.585Z,5.62
2018-02-24T05:39:04.022Z,5.71
2018-02-24T05:41:33.958Z,5.73
2018-02-24T05:44:04.398Z,5.63
2018-02-24T05:46:35.155Z,5.63
2018-02-24T05:49:05.399Z,5.73
2018-02-24T05:51:35.788Z,5.72
2018-02-24T05:54:05.925Z,5.67
2018-02-24T05:56:35.795Z,5.73
2018-02-24T05:59:06.468Z,5.82
2018-02-24T06:01:37.238Z,5.79
2018-02-24T06:04:07.214Z,5.86
2018-02-24T06:06:37.519Z,5.90
2018-02-24T06:09:07.819Z,5.99
2018-02-24T06:11:38.635Z,5.96
2018-02-24T06:14:10.699Z,6.06
2018-02-24T06:16:41.313Z,5.94
2018-02-24T06:19:11.870Z,5.88
2018-02-24T06:21:42.683Z,5.80
2018-02-24T06:24:12.750Z,5.84
2018-02-24T06:26:43.716Z,5.89
2018-02-24T06:29:14.561Z,5.91
2018-02-24T06:31:45.579Z,5.95
2018-02-24T06:34:16.855Z,6.01
2018-02-24T06:36:48.281Z,6.07
2018-02-24T06:39:19.514Z,6.11
2018-02-24T06:41:49.706Z,6.10
2018-02-24T06:44:20.091Z,6.03
2018-02-24T06:46:50.315Z,6.11
2018-02-24T06:49:20.749Z,6.11
2018-02-24T06:51:51.236Z,6.02
2018-02-24T06:54:21.588Z,5.98
2018-02-24T06:56:51.543Z,5.94
2018-02-24T06:59:22.087Z,5.86
2018-02-24T07:01:52.701Z,5.89
2018-02-24T07:04:22.584Z,5.87
2018-02-24T07:06:53.018Z,5.93
2018-02-24T07:09:23.501Z,5.92
2018-02-24T07:11:53.779Z,6.01
2018-02-24T07:14:24.300Z,5.99
2018-02-24T07:16:54.204Z,5.93
2018-02-24T07:19:24.672Z,5.91
2018-02-24T07:21:55.060Z,6.09
2018-02-24T07:24:25.414Z,5.92
2018-02-24T07:26:55.237Z,6.04
2018-02-24T07:29:25.632Z,6.29
2018-02-24T07:31:56.044Z,6.16
2018-02-24T07:34:26.518Z,6.15
2018-02-24T07:36:57.156Z,6.05
2018-02-24T07:39:27.608Z,6.15
2018-02-24T07:41:57.369Z,6.03
2018-02-24T07:44:28.800Z,6.08
2018-02-24T07:47:01.985Z,6.17
2018-02-24T07:49:32.629Z,6.08
2018-02-24T07:52:03.234Z,6.11
2018-02-24T07:54:33.584Z,6.18
2018-02-24T07:57:04.093Z,6.24
2018-02-24T07:59:34.410Z,6.24
2018-02-24T08:02:05.172Z,6.19
2018-02-24T08:04:35.971Z,6.22
2018-02-24T08:07:06.459Z,6.25
2018-02-24T08:09:37.181Z,6.39
2018-02-24T08:12:07.518Z,6.49
2018-02-24T08:14:38.243Z,6.41
2018-02-24T08:17:08.628Z,6.38
2018-02-24T08:19:38.680Z,6.42
2018-02-24T08:22:09.233Z,6.57
2018-02-24T08:24:39.559Z,6.53
2018-02-24T08:27:09.761Z,6.52
2018-02-24T08:29:40.340Z,6.56
2018-02-24T08:32:11.014Z,6.60
2018-02-24T08:34:41.822Z,6.64
2018-02-24T08:37:12.243Z,6.63
2018-02-24T08:39:43.012Z,6.68
2018-02-24T08:42:13.513Z,6.63
2018-02-24T08:44:44.062Z,6.70
2018-02-24T08:47:15.564Z,6.62
2018-02-24T08:49:46.552Z,6.74
2018-02-24T08:52:17.086Z,6.79
2018-02-24T08:54:47.460Z,6.78
2018-02-24T08:57:17.874Z,6.72
2018-02-24T08:59:48.550Z,6.57
2018-02-24T09:02:18.863Z,6.56
2018-02-24T09:04:49.928Z,6.59
2018-02-24T09:07:20.233Z,6.54
2018-02-24T09:09:51.042Z,6.72
2018-02-24T09:12:21.752Z,6.80
2018-02-24T09:14:52.148Z,6.89
2018-02-24T09:17:22.679Z,6.91
2018-02-24T09:19:52.910Z,6.89
2018-02-24T09:22:23.225Z,6.95
2018-02-24T09:24:53.134Z,7.01
2018-02-24T09:27:23.618Z,6.85
2018-02-24T09:29:54.216Z,7.03
2018-02-24T09:32:24.227Z,7.18
2018-02-24T09:34:54.963Z,7.23
2018-02-24T09:37:25.732Z,7.36
2018-02-24T09:39:56.517Z,7.30
2018-02-24T09:42:27.186Z,7.37
2018-02-24T09:44:57.983Z,7.19
2018-02-24T09:47:28.436Z,7.35
2018-02-24T09:49:59.192Z,7.30
2018-02-24T09:52:29.771Z,7.21
2018-02-24T09:55:00.119Z,7.01
2018-02-24T09:57:31.006Z,7.17
2018-02-24T10:00:00.982Z,7.28
2018-02-24T10:02:31.880Z,7.33
2018-02-24T10:05:02.740Z,7.36
2018-02-24T10:07:33.607Z,7.29
2018-02-24T10:10:04.542Z,7.44
2018-02-24T10:12:36.082Z,7.58
2018-02-24T10:15:06.641Z,7.44
2018-02-24T10:17:36.762Z,7.50
2018-02-24T10:20:07.200Z,7.59
2018-02-24T10:22:37.279Z,7.62
2018-02-24T10:25:08.680Z,7.67
2018-02-24T10:27:38.483Z,7.72
2018-02-24T10:30:09.046Z,7.84
2018-02-24T10:32:39.658Z,7.86
2018-02-24T10:35:10.160Z,7.75
2018-02-24T10:37:39.942Z,7.80
2018-02-24T10:40:10.429Z,7.83
2018-02-24T10:42:40.786Z,7.94
2018-02-24T10:45:12.091Z,8.20
2018-02-24T10:47:42.680Z,8.34
2018-02-24T10:50:13.200Z,8.23
2018-02-24T10:52:43.739Z,8.45
2018-02-24T10:55:14.923Z,8.65
2018-02-24T10:57:45.322Z,8.80
2018-02-24T11:00:16.186Z,8.50
2018-02-24T11:02:46.633Z,8.55
2018-02-24T11:05:17.097Z,8.66
2018-02-24T11:07:47.877Z,8.69
2018-02-24T11:10:19.059Z,8.76
2018-02-24T11:12:49.452Z,8.82
2018-02-24T11:15:19.951Z,8.51
2018-02-24T11:17:49.984Z,8.79
2018-02-24T11:20:20.243Z,8.92
2018-02-24T11:22:49.992Z,8.82
2018-02-24T11:25:20.388Z,8.75
2018-02-24T11:27:50.916Z,8.72
2018-02-24T11:30:21.476Z,8.66
2018-02-24T11:32:52.057Z,8.69
2018-02-24T11:35:23.388Z,8.73
2018-02-24T11:37:53.853Z,8.76
2018-02-24T11:40:24.680Z,8.79
2018-02-24T11:42:55.087Z,8.82
2018-02-24T11:45:25.676Z,8.61
2018-02-24T11:47:55.944Z,8.39
2018-02-24T11:50:26.465Z,8.42
2018-02-24T11:52:57.109Z,8.21
2018-02-24T11:55:27.686Z,8.25
2018-02-24T11:57:58.324Z,8.46
2018-02-24T12:00:28.775Z,8.45
2018-02-24T12:02:58.840Z,8.41
2018-02-24T12:05:28.641Z,8.43
2018-02-24T12:07:59.138Z,8.45
2018-02-24T12:10:29.583Z,8.26
2018-02-24T12:13:00.116Z,8.04
2018-02-24T12:15:30.546Z,8.13
2018-02-24T12:18:01.092Z,8.18
2018-02-24T12:20:31.502Z,8.11
2018-02-24T12:23:02.068Z,8.19
2018-02-24T12:25:31.859Z,8.10
2018-02-24T12:28:02.437Z,8.30
2018-02-24T12:30:32.866Z,8.33
2018-02-24T12:33:02.843Z,8.23
2018-02-24T12:35:32.748Z,8.21
2018-02-24T12:38:03.365Z,8.27
2018-02-24T12:40:34.928Z,8.14
2018-02-24T12:43:05.419Z,8.19
2018-02-24T12:45:35.546Z,8.13
2018-02-24T12:48:05.355Z,8.11
2018-02-24T12:50:35.640Z,8.16
2018-02-24T12:53:05.988Z,8.23
2018-02-24T12:55:36.983Z,8.24
2018-02-24T12:58:07.898Z,8.27
2018-02-24T13:00:38.597Z,8.30
2018-02-24T13:03:08.976Z,8.29
2018-02-24T13:05:39.791Z,8.31
2018-02-24T13:08:10.301Z,8.27
2018-02-24T13:10:41.342Z,8.24
2018-02-24T13:13:11.817Z,8.26
2018-02-24T13:15:42.885Z,8.29
2018-02-24T13:18:14.990Z,8.22
2018-02-24T13:20:45.026Z,8.17
2018-02-24T13:23:15.861Z,8.11
2018-02-24T13:25:46.553Z,8.13
2018-02-24T13:28:16.828Z,8.20
2018-02-24T13:30:47.338Z,8.26
2018-02-24T13:33:18.426Z,8.12
2018-02-24T13:35:49.999Z,8.06
2018-02-24T13:38:20.901Z,8.08
2018-02-24T13:40:51.436Z,8.04
2018-02-24T13:43:21.650Z,7.96
2018-02-24T13:45:51.626Z,7.96
2018-02-24T13:48:22.009Z,8.05
2018-02-24T13:50:53.088Z,8.09
2018-02-24T13:53:23.483Z,8.10
2018-02-24T13:55:53.355Z,8.26
2018-02-24T13:58:24.390Z,8.31
2018-02-24T14:00:54.944Z,8.29
2018-02-24T14:03:25.178Z,8.26
2018-02-24T14:05:55.825Z,8.28
2018-02-24T14:08:26.087Z,8.29
2018-02-24T14:10:56.330Z,8.33
2018-02-24T14:13:26.220Z,8.29
2018-02-24T14:15:56.138Z,8.28
2018-02-24T14:18:29.738Z,8.28
2018-02-24T14:21:05.099Z,8.21
2018-02-24T14:23:35.043Z,8.20
2018-02-24T14:26:12.406Z,8.11
2018-02-24T14:28:52.442Z,8.00
2018-02-24T14:31:22.708Z,7.85
2018-02-24T14:33:53.237Z,7.86
2018-02-24T14:36:23.643Z,7.81
2018-02-24T14:38:54.425Z,7.81
2018-02-24T14:41:25.023Z,7.86
2018-02-24T14:43:54.885Z,7.97
2018-02-24T14:46:24.803Z,8.12
2018-02-24T14:48:54.673Z,8.16
2018-02-24T14:51:27.209Z,8.22
2018-02-24T14:53:58.470Z,8.17
2018-02-24T14:56:29.054Z,8.13
2018-02-24T14:58:59.995Z,8.08
2018-02-24T15:01:30.825Z,8.08
2018-02-24T15:04:01.766Z,8.04
2018-02-24T15:06:32.157Z,8.08
2018-02-24T15:09:03.606Z,8.08
2018-02-24T15:11:34.368Z,8.06
2018-02-24T15:14:05.283Z,8.03
2018-02-24T15:16:35.725Z,7.95
2018-02-24T15:19:06.152Z,7.89
2018-02-24T15:21:37.437Z,7.83
2018-02-24T15:24:07.295Z,7.79
2018-02-24T15:26:37.263Z,7.80
2018-02-24T15:29:07.333Z,7.79
2018-02-24T15:31:37.829Z,7.78
2018-02-24T15:34:08.169Z,7.69
2018-02-24T15:36:38.525Z,7.61
2018-02-24T15:39:08.333Z,7.59
2018-02-24T15:41:38.035Z,7.51
2018-02-24T15:44:08.620Z,7.44
2018-02-24T15:46:38.341Z,7.49
2018-02-24T15:49:08.061Z,7.51
2018-02-24T15:51:37.847Z,7.50
2018-02-24T15:54:07.601Z,7.42
2018-02-24T15:56:37.347Z,7.35
2018-02-24T15:59:07.117Z,7.37
2018-02-24T16:01:36.843Z,7.30
2018-02-24T16:04:06.612Z,7.26
2018-02-24T16:06:36.348Z,7.17
2018-02-24T16:09:06.123Z,7.03
2018-02-24T16:11:35.846Z,6.92
2018-02-24T16:14:05.564Z,6.91
2018-02-24T16:16:35.392Z,6.87
2018-02-24T16:19:05.173Z,6.64
2018-02-24T16:21:34.992Z,6.64
2018-02-24T16:24:04.747Z,6.66
2018-02-24T16:26:34.513Z,6.57
2018-02-24T16:29:04.381Z,6.55
2018-02-24T16:31:34.118Z,6.60
2018-02-24T16:34:03.851Z,6.57
2018-02-24T16:36:33.690Z,6.50
2018-02-24T16:39:03.581Z,6.62
2018-02-24T16:41:33.357Z,6.57
2018-02-24T16:44:03.118Z,6.50
2018-02-24T16:46:32.953Z,6.57
2018-02-24T16:49:02.756Z,6.54
2018-02-24T16:51:32.550Z,6.56
2018-02-24T16:54:02.312Z,6.54
2018-02-24T16:56:32.042Z,6.54
2018-02-24T16:59:01.766Z,6.47
2018-02-24T17:01:31.571Z,6.42
2018-02-24T17:04:01.347Z,6.39
2018-02-24T17:06:31.120Z,6.43
2018-02-24T17:09:00.835Z,6.47
2018-02-24T17:11:30.580Z,6.53
2018-02-24T17:14:00.380Z,6.55
2018-02-24T17:16:30.121Z,6.55
2018-02-24T17:19:00.034Z,6.37
2018-02-24T17:21:29.768Z,6.29
2018-02-24T17:23:59.525Z,6.30
2018-02-24T17:26:29.315Z,6.33
2018-02-24T17:28:59.068Z,6.32
2018-02-24T17:31:28.852Z,6.34
2018-02-24T17:33:58.624Z,6.29
2018-02-24T17:36:28.328Z,6.37
2018-02-24T17:38:58.111Z,6.40
2018-02-24T17:41:27.876Z,6.33
2018-02-24T17:43:57.618Z,6.32
2018-02-24T17:46:27.400Z,6.27
2018-02-24T17:48:57.124Z,6.28
2018-02-24T17:51:26.864Z,6.22
2018-02-24T17:53:56.625Z,6.23
2018-02-24T17:56:26.337Z,6.16
2018-02-24T17:58:56.090Z,6.06
2018-02-24T18:01:25.811Z,6.05
2018-02-24T18:03:55.645Z,6.16
2018-02-24T18:06:25.389Z,6.24
2018-02-24T18:08:55.200Z,6.28
2018-02-24T18:11:25.002Z,6.29
2018-02-24T18:13:54.833Z,6.29
2018-02-24T18:16:24.623Z,6.18
2018-02-24T18:18:54.431Z,6.20
2018-02-24T18:21:24.166Z,6.10
2018-02-24T18:23:54.034Z,6.12
2018-02-24T18:26:23.801Z,6.15
2018-02-24T18:28:53.571Z,6.22
2018-02-24T18:31:23.338Z,6.27
2018-02-24T18:33:53.089Z,6.27
2018-02-24T18:36:22.942Z,6.28
2018-02-24T18:38:52.733Z,6.24
2018-02-24T18:41:22.513Z,6.32
2018-02-24T18:43:52.301Z,6.31
2018-02-24T18:46:22.069Z,6.26
2018-02-24T18:48:51.849Z,6.27
2018-02-24T18:51:21.618Z,6.21
2018-02-24T18:53:51.373Z,6.24
2018-02-24T18:56:21.190Z,6.23
2018-02-24T18:58:50.928Z,6.25
2018-02-24T19:01:20.700Z,6.21
2018-02-24T19:03:50.438Z,6.21
2018-02-24T19:06:20.183Z,6.23
2018-02-24T19:08:49.959Z,6.18
2018-02-24T19:11:19.751Z,6.15
2018-02-24T19:13:49.544Z,6.11
2018-02-24T19:16:19.279Z,6.12
2018-02-24T19:18:49.005Z,6.14
2018-02-24T19:21:18.756Z,6.21
2018-02-24T19:23:48.484Z,6.22
2018-02-24T19:26:18.276Z,6.17
2018-02-24T19:28:48.096Z,6.19
2018-02-24T19:31:17.854Z,6.23
2018-02-24T19:33:47.646Z,6.23
2018-02-24T19:36:17.383Z,6.23
2018-02-24T19:38:47.138Z,6.19
2018-02-24T19:41:16.953Z,6.19
2018-02-24T19:43:46.709Z,6.11
2018-02-24T19:46:16.585Z,6.14
2018-02-24T19:48:46.361Z,6.08
2018-02-24T19:51:16.136Z,6.09
2018-02-24T19:53:45.871Z,6.15
2018-02-24T19:56:15.590Z,6.18
2018-02-24T19:58:45.419Z,6.10
2018-02-24T20:01:15.144Z,6.05
2018-02-24T20:03:44.870Z,6.15
2018-02-24T20:06:14.624Z,6.17
2018-02-24T20:08:44.347Z,6.24
2018-02-24T20:11:14.069Z,6.26
2018-02-24T20:13:44.486Z,6.30
2018-02-24T20:16:14.290Z,6.23
2018-02-24T20:18:44.093Z,6.20
2018-02-24T20:21:13.821Z,6.07
2018-02-24T20:23:43.513Z,6.04
2018-02-24T20:26:13.267Z,6.03
2018-02-24T20:28:42.984Z,6.07
2018-02-24T20:31:12.744Z,6.04
2018-02-24T20:33:42.538Z,6.12
2018-02-24T20:36:12.253Z,6.16
2018-02-24T20:38:42.011Z,6.14
2018-02-24T20:41:11.740Z,6.15
2018-02-24T20:43:41.484Z,6.11
2018-02-24T20:46:11.303Z,6.05
2018-02-24T20:48:41.070Z,6.11
2018-02-24T20:51:10.816Z,6.09
2018-02-24T20:53:40.585Z,6.11
2018-02-24T20:56:10.339Z,6.18
2018-02-24T20:58:40.073Z,6.05
2018-02-24T21:01:09.839Z,6.17
2018-02-24T21:03:39.651Z,6.12
2018-02-24T21:06:09.473Z,6.22
2018-02-24T21:08:39.207Z,6.27
2018-02-24T21:11:09.061Z,6.22
2018-02-24T21:13:38.878Z,6.22
2018-02-24T21:16:08.627Z,6.22
2018-02-24T21:18:38.364Z,6.22
2018-02-24T21:21:08.092Z,6.26
2018-02-24T21:23:37.899Z,6.26
2018-02-24T21:26:07.690Z,6.27
2018-02-24T21:28:37.404Z,6.34
2018-02-24T21:31:07.161Z,6.37
2018-02-24T21:33:36.887Z,6.40
2018-02-24T21:36:06.695Z,6.46
2018-02-24T21:38:36.498Z,6.46
2018-02-24T21:41:06.218Z,6.47
2018-02-24T21:43:35.980Z,6.44
2018-02-24T21:46:05.729Z,6.45
2018-02-24T21:48:35.462Z,6.41
2018-02-24T21:51:05.238Z,6.46
2018-02-24T21:53:34.979Z,6.47
2018-02-24T21:56:04.798Z,6.53
2018-02-24T21:58:34.512Z,6.58
2018-02-24T22:01:04.207Z,6.56
2018-02-24T22:03:33.988Z,6.59
2018-02-24T22:06:03.725Z,6.49
2018-02-24T22:08:33.508Z,6.41
2018-02-24T22:11:03.329Z,6.40
2018-02-24T22:13:33.136Z,6.40
2018-02-24T22:16:02.910Z,6.44
2018-02-24T22:18:32.763Z,6.49
2018-02-24T22:21:02.509Z,6.48
2018-02-24T22:23:32.319Z,6.57
2018-02-24T22:26:02.119Z,6.56
2018-02-24T22:28:31.881Z,6.50
2018-02-24T22:31:01.706Z,6.50
2018-02-24T22:33:31.479Z,6.40
2018-02-24T22:36:01.225Z,6.36
2018-02-24T22:38:30.954Z,6.40
2018-02-24T22:41:00.712Z,6.40
2018-02-24T22:43:30.415Z,6.34
2018-02-24T22:46:00.124Z,6.41
2018-02-24T22:48:35.497Z,6.48
2018-02-24T22:51:05.255Z,6.47
2018-02-24T22:53:35.018Z,6.45
2018-02-24T22:56:04.783Z,6.38
2018-02-24T22:58:34.542Z,6.37
2018-02-24T23:01:04.307Z,6.31
2018-02-24T23:03:34.063Z,6.36
2018-02-24T23:06:03.914Z,6.37
2018-02-24T23:08:33.666Z,6.44
2018-02-24T23:11:03.362Z,6.39
2018-02-24T23:13:33.123Z,6.36
2018-02-24T23:16:02.816Z,6.35
2018-02-24T23:18:32.592Z,6.35
2018-02-24T23:21:02.291Z,6.36
2018-02-24T23:23:32.017Z,6.45
2018-02-24T23:26:01.772Z,6.52
2018-02-24T23:28:31.498Z,6.40
2018-02-24T23:31:01.243Z,6.35
2018-02-24T23:33:31.068Z,6.21
2018-02-24T23:36:00.764Z,6.14
2018-02-24T23:38:30.522Z,6.15
2018-02-24T23:41:00.298Z,6.23
2018-02-24T23:43:30.032Z,6.24
2018-02-24T23:45:59.789Z,6.30
2018-02-24T23:48:29.538Z,6.32
2018-02-24T23:50:59.303Z,6.37
2018-02-24T23:53:29.058Z,6.38
2018-02-24T23:55:58.927Z,6.35
2018-02-24T23:58:28.711Z,6.45
